FIN6EM EFHK-EFOU
Flight info
| Callsign | FIN6EM |
|---|---|
| Flight time | 0h 50m |
| Altitude | 38000 |
| Route | TEVRU Y75 SUVIB |
| Aircraft | E190/M-SDE3GILORVW/S |
Departure
| Time | 2026-05-09 01:07 |
|---|---|
| Airport | Helsinki Vantaa Airport (EFHK) |
Arrival
| Time | 2026-05-09 01:57 |
|---|---|
| Airport | Oulu Airport (EFOU) |
| Time | Latitude | Longitude | Altitude | Speed | Heading |
|---|---|---|---|---|---|
| 2026-05-09 00:55 | 60.31802 | 24.96390 | 165 ft | 0 kts | 137° |
| 2026-05-09 01:00 | 60.31815 | 24.96366 | 165 ft | 4 kts | 137° |
| 2026-05-09 01:01 | 60.31831 | 24.96337 | 165 ft | 2 kts | 138° |
| 2026-05-09 01:01 | 60.31847 | 24.96316 | 165 ft | 4 kts | 205° |
| 2026-05-09 01:01 | 60.31865 | 24.96346 | 165 ft | 4 kts | 227° |
| 2026-05-09 01:01 | 60.31882 | 24.96383 | 165 ft | 2 kts | 227° |
| 2026-05-09 01:02 | 60.31884 | 24.96387 | 165 ft | 2 kts | 227° |
| 2026-05-09 01:03 | 60.31883 | 24.96385 | 165 ft | 2 kts | 227° |
| 2026-05-09 01:03 | 60.31862 | 24.96323 | 165 ft | 9 kts | 240° |
| 2026-05-09 01:04 | 60.31864 | 24.96166 | 165 ft | 15 kts | 296° |
| 2026-05-09 01:04 | 60.31950 | 24.95987 | 169 ft | 20 kts | 316° |
| 2026-05-09 01:04 | 60.32057 | 24.95786 | 173 ft | 24 kts | 316° |
| 2026-05-09 01:04 | 60.32190 | 24.95534 | 172 ft | 27 kts | 318° |
| 2026-05-09 01:05 | 60.32320 | 24.95306 | 175 ft | 23 kts | 323° |
| 2026-05-09 01:05 | 60.32452 | 24.95194 | 178 ft | 14 kts | 341° |
| 2026-05-09 01:05 | 60.32679 | 24.95052 | 178 ft | 21 kts | 342° |
| 2026-05-09 01:06 | 60.32841 | 24.94947 | 174 ft | 27 kts | 341° |
| 2026-05-09 01:06 | 60.32990 | 24.94735 | 178 ft | 24 kts | 317° |
| 2026-05-09 01:06 | 60.33099 | 24.94529 | 187 ft | 20 kts | 316° |
| 2026-05-09 01:06 | 60.33087 | 24.94327 | 188 ft | 13 kts | 227° |
| 2026-05-09 01:07 | 60.33037 | 24.94219 | 187 ft | 17 kts | 227° |
| 2026-05-09 01:07 | 60.32757 | 24.93607 | 180 ft | 107 kts | 227° |
| 2026-05-09 01:07 | 60.32080 | 24.92122 | 448 ft | 168 kts | 227° |
| 2026-05-09 01:07 | 60.31193 | 24.90191 | 1222 ft | 209 kts | 227° |
| 2026-05-09 01:08 | 60.30174 | 24.87894 | 2338 ft | 233 kts | 235° |
| 2026-05-09 01:08 | 60.29719 | 24.84781 | 3620 ft | 237 kts | 269° |
| 2026-05-09 01:08 | 60.30181 | 24.81618 | 4963 ft | 238 kts | 297° |
| 2026-05-09 01:08 | 60.31013 | 24.78671 | 6217 ft | 245 kts | 300° |
| 2026-05-09 01:09 | 60.32031 | 24.75839 | 7508 ft | 261 kts | 308° |
| 2026-05-09 01:09 | 60.33111 | 24.72637 | 8517 ft | 286 kts | 300° |
| 2026-05-09 01:09 | 60.34110 | 24.69080 | 10048 ft | 295 kts | 298° |
| 2026-05-09 01:09 | 60.35166 | 24.65446 | 11483 ft | 312 kts | 304° |
| 2026-05-09 01:10 | 60.36863 | 24.62548 | 12557 ft | 332 kts | 333° |
| 2026-05-09 01:10 | 60.39131 | 24.61400 | 13812 ft | 343 kts | 356° |
| 2026-05-09 01:10 | 60.41535 | 24.61821 | 15050 ft | 351 kts | 9° |
| 2026-05-09 01:10 | 60.43927 | 24.62809 | 16189 ft | 359 kts | 12° |
| 2026-05-09 01:11 | 60.46398 | 24.63889 | 17232 ft | 366 kts | 12° |
| 2026-05-09 01:11 | 60.48912 | 24.64963 | 18169 ft | 373 kts | 12° |
| 2026-05-09 01:11 | 60.51478 | 24.66076 | 19017 ft | 379 kts | 12° |
| 2026-05-09 01:11 | 60.54081 | 24.67252 | 19796 ft | 385 kts | 12° |
| 2026-05-09 01:12 | 60.56714 | 24.68478 | 20502 ft | 391 kts | 13° |
| 2026-05-09 01:12 | 60.59376 | 24.69784 | 21154 ft | 397 kts | 13° |
| 2026-05-09 01:12 | 60.62070 | 24.71169 | 21759 ft | 402 kts | 14° |
| 2026-05-09 01:12 | 60.64801 | 24.72619 | 22317 ft | 407 kts | 14° |
| 2026-05-09 01:13 | 60.67519 | 24.74099 | 22830 ft | 412 kts | 15° |
| 2026-05-09 01:13 | 60.70301 | 24.75646 | 23320 ft | 417 kts | 15° |
| 2026-05-09 01:13 | 60.73108 | 24.77231 | 23806 ft | 420 kts | 15° |
| 2026-05-09 01:13 | 60.75935 | 24.78853 | 24293 ft | 422 kts | 15° |
| 2026-05-09 01:14 | 60.78778 | 24.80508 | 24706 ft | 427 kts | 16° |
| 2026-05-09 01:14 | 60.81642 | 24.82190 | 25098 ft | 430 kts | 14° |
| 2026-05-09 01:14 | 60.84589 | 24.83276 | 25452 ft | 432 kts | 7° |
| 2026-05-09 01:14 | 60.87592 | 24.83960 | 25805 ft | 435 kts | 5° |
| 2026-05-09 01:15 | 60.90614 | 24.84596 | 26144 ft | 438 kts | 6° |
| 2026-05-09 01:15 | 60.93653 | 24.85257 | 26458 ft | 440 kts | 6° |
| 2026-05-09 01:15 | 60.96706 | 24.85939 | 26748 ft | 442 kts | 6° |
| 2026-05-09 01:15 | 60.99772 | 24.86634 | 27016 ft | 445 kts | 6° |
| 2026-05-09 01:16 | 61.02854 | 24.87338 | 27269 ft | 447 kts | 6° |
| 2026-05-09 01:16 | 61.05948 | 24.88047 | 27515 ft | 449 kts | 6° |
| 2026-05-09 01:16 | 61.09066 | 24.88762 | 27746 ft | 450 kts | 6° |
| 2026-05-09 01:17 | 61.15321 | 24.90204 | 28204 ft | 452 kts | 6° |
| 2026-05-09 01:17 | 61.18414 | 24.90916 | 28423 ft | 453 kts | 6° |
| 2026-05-09 01:17 | 61.24725 | 24.92396 | 28637 ft | 459 kts | 6° |
| 2026-05-09 01:18 | 61.27896 | 24.93191 | 28792 ft | 460 kts | 6° |
| 2026-05-09 01:18 | 61.31080 | 24.93986 | 28942 ft | 461 kts | 6° |
| 2026-05-09 01:18 | 61.34264 | 24.94781 | 29138 ft | 461 kts | 6° |
| 2026-05-09 01:18 | 61.37447 | 24.95571 | 29350 ft | 460 kts | 6° |
| 2026-05-09 01:19 | 61.43847 | 24.97169 | 29466 ft | 466 kts | 6° |
| 2026-05-09 01:19 | 61.47062 | 24.97975 | 29626 ft | 465 kts | 6° |
| 2026-05-09 01:19 | 61.50274 | 24.98781 | 29790 ft | 465 kts | 6° |
| 2026-05-09 01:20 | 61.53478 | 24.99585 | 29950 ft | 464 kts | 6° |
| 2026-05-09 01:20 | 61.56687 | 25.00394 | 30086 ft | 464 kts | 6° |
| 2026-05-09 01:20 | 61.63158 | 25.01694 | 30079 ft | 469 kts | 1° |
| 2026-05-09 01:21 | 61.69719 | 25.01867 | 30088 ft | 473 kts | 0° |
| 2026-05-09 01:21 | 61.76322 | 25.02033 | 30167 ft | 474 kts | 0° |
| 2026-05-09 01:22 | 61.78501 | 25.02098 | 30272 ft | 473 kts | 0° |
| 2026-05-09 01:22 | 61.82849 | 25.02231 | 30492 ft | 470 kts | 0° |
| 2026-05-09 01:22 | 61.89381 | 25.02454 | 30652 ft | 470 kts | 1° |
| 2026-05-09 01:23 | 61.95925 | 25.02747 | 30750 ft | 471 kts | 1° |
| 2026-05-09 01:23 | 62.01375 | 25.02987 | 30713 ft | 459 kts | 1° |
| 2026-05-09 01:24 | 62.04488 | 25.03125 | 30801 ft | 439 kts | 1° |
| 2026-05-09 01:24 | 62.07506 | 25.03255 | 31451 ft | 429 kts | 1° |
| 2026-05-09 01:24 | 62.10471 | 25.03385 | 31897 ft | 423 kts | 1° |
| 2026-05-09 01:24 | 62.13392 | 25.03511 | 32318 ft | 418 kts | 1° |
| 2026-05-09 01:25 | 62.16293 | 25.03638 | 32656 ft | 416 kts | 1° |
| 2026-05-09 01:25 | 62.19184 | 25.03754 | 32908 ft | 415 kts | 1° |
| 2026-05-09 01:25 | 62.22081 | 25.03862 | 33076 ft | 416 kts | 1° |
| 2026-05-09 01:25 | 62.24995 | 25.03973 | 33161 ft | 420 kts | 1° |
| 2026-05-09 01:26 | 62.30869 | 25.04199 | 33179 ft | 429 kts | 1° |
| 2026-05-09 01:26 | 62.36893 | 25.04433 | 33101 ft | 437 kts | 1° |
| 2026-05-09 01:27 | 62.43014 | 25.04681 | 33001 ft | 442 kts | 1° |
| 2026-05-09 01:27 | 62.49185 | 25.04923 | 32987 ft | 444 kts | 1° |
| 2026-05-09 01:28 | 62.55379 | 25.05166 | 32993 ft | 446 kts | 1° |
| 2026-05-09 01:28 | 62.61602 | 25.05412 | 33000 ft | 447 kts | 1° |
| 2026-05-09 01:29 | 62.67840 | 25.05657 | 33006 ft | 449 kts | 1° |
| 2026-05-09 01:29 | 62.74049 | 25.05892 | 33009 ft | 447 kts | 1° |
| 2026-05-09 01:30 | 62.77093 | 25.06008 | 33019 ft | 431 kts | 1° |
| 2026-05-09 01:30 | 62.80098 | 25.06122 | 33002 ft | 433 kts | 1° |
| 2026-05-09 01:30 | 62.86165 | 25.06365 | 33014 ft | 436 kts | 1° |
| 2026-05-09 01:31 | 62.92258 | 25.06610 | 33022 ft | 439 kts | 1° |
| 2026-05-09 01:31 | 62.98379 | 25.06858 | 33031 ft | 441 kts | 1° |
| 2026-05-09 01:32 | 63.04537 | 25.07107 | 33002 ft | 444 kts | 1° |
| 2026-05-09 01:32 | 63.10694 | 25.07357 | 33002 ft | 446 kts | 1° |
| 2026-05-09 01:33 | 63.16909 | 25.07609 | 33002 ft | 447 kts | 1° |
| 2026-05-09 01:33 | 63.23143 | 25.07864 | 33002 ft | 448 kts | 1° |
| 2026-05-09 01:34 | 63.29400 | 25.08121 | 32873 ft | 453 kts | 1° |
| 2026-05-09 01:34 | 63.32576 | 25.08252 | 32609 ft | 460 kts | 1° |
| 2026-05-09 01:34 | 63.35791 | 25.08381 | 32371 ft | 465 kts | 1° |
| 2026-05-09 01:35 | 63.39051 | 25.08513 | 32129 ft | 471 kts | 1° |
| 2026-05-09 01:35 | 63.42307 | 25.08646 | 31882 ft | 476 kts | 1° |
| 2026-05-09 01:35 | 63.45639 | 25.08780 | 31630 ft | 480 kts | 1° |
| 2026-05-09 01:35 | 63.48988 | 25.08920 | 31380 ft | 482 kts | 1° |
| 2026-05-09 01:36 | 63.52337 | 25.09055 | 31132 ft | 483 kts | 1° |
| 2026-05-09 01:36 | 63.55701 | 25.09194 | 30877 ft | 483 kts | 1° |
| 2026-05-09 01:36 | 63.59058 | 25.09334 | 30628 ft | 483 kts | 1° |
| 2026-05-09 01:36 | 63.62418 | 25.09469 | 30551 ft | 480 kts | 1° |
| 2026-05-09 01:37 | 63.65786 | 25.09605 | 29677 ft | 489 kts | 1° |
| 2026-05-09 01:37 | 63.69208 | 25.09748 | 28520 ft | 491 kts | 1° |
| 2026-05-09 01:37 | 63.72607 | 25.09888 | 27461 ft | 485 kts | 1° |
| 2026-05-09 01:37 | 63.75956 | 25.10027 | 26432 ft | 478 kts | 1° |
| 2026-05-09 01:38 | 63.79246 | 25.10168 | 25621 ft | 467 kts | 1° |
| 2026-05-09 01:38 | 63.82426 | 25.10298 | 24936 ft | 455 kts | 1° |
| 2026-05-09 01:38 | 63.85537 | 25.10429 | 24359 ft | 441 kts | 1° |
| 2026-05-09 01:38 | 63.88563 | 25.10557 | 23798 ft | 430 kts | 1° |
| 2026-05-09 01:39 | 63.91537 | 25.10679 | 23257 ft | 426 kts | 1° |
| 2026-05-09 01:39 | 63.94510 | 25.10806 | 22662 ft | 428 kts | 1° |
| 2026-05-09 01:39 | 63.97479 | 25.10930 | 22084 ft | 426 kts | 1° |
| 2026-05-09 01:39 | 64.00432 | 25.11053 | 21543 ft | 423 kts | 1° |
| 2026-05-09 01:40 | 64.03364 | 25.11180 | 20969 ft | 419 kts | 1° |
| 2026-05-09 01:40 | 64.06268 | 25.11301 | 20429 ft | 414 kts | 1° |
| 2026-05-09 01:40 | 64.09145 | 25.11423 | 19867 ft | 410 kts | 1° |
| 2026-05-09 01:40 | 64.11986 | 25.11546 | 19333 ft | 406 kts | 1° |
| 2026-05-09 01:41 | 64.14798 | 25.11664 | 18796 ft | 402 kts | 1° |
| 2026-05-09 01:41 | 64.17548 | 25.11782 | 18270 ft | 398 kts | 1° |
| 2026-05-09 01:41 | 64.20315 | 25.11902 | 17742 ft | 395 kts | 1° |
| 2026-05-09 01:41 | 64.23045 | 25.12016 | 17205 ft | 391 kts | 1° |
| 2026-05-09 01:42 | 64.25758 | 25.12135 | 16701 ft | 388 kts | 1° |
| 2026-05-09 01:42 | 64.28443 | 25.12251 | 16190 ft | 384 kts | 1° |
| 2026-05-09 01:42 | 64.31105 | 25.12363 | 15672 ft | 381 kts | 1° |
| 2026-05-09 01:42 | 64.33743 | 25.12480 | 15173 ft | 377 kts | 1° |
| 2026-05-09 01:43 | 64.36352 | 25.12593 | 14657 ft | 371 kts | 1° |
| 2026-05-09 01:43 | 64.38897 | 25.12701 | 14192 ft | 360 kts | 1° |
| 2026-05-09 01:43 | 64.41369 | 25.12812 | 13707 ft | 351 kts | 1° |
| 2026-05-09 01:43 | 64.43777 | 25.12855 | 13262 ft | 342 kts | 357° |
| 2026-05-09 01:44 | 64.46095 | 25.12102 | 12828 ft | 333 kts | 347° |
| 2026-05-09 01:44 | 64.48331 | 25.10897 | 12368 ft | 326 kts | 346° |
| 2026-05-09 01:44 | 64.50521 | 25.09753 | 11960 ft | 320 kts | 347° |
| 2026-05-09 01:44 | 64.52685 | 25.08706 | 11510 ft | 315 kts | 348° |
| 2026-05-09 01:45 | 64.54816 | 25.07729 | 11114 ft | 309 kts | 348° |
| 2026-05-09 01:45 | 64.56887 | 25.06791 | 10705 ft | 304 kts | 348° |
| 2026-05-09 01:45 | 64.58948 | 25.05868 | 10291 ft | 301 kts | 348° |
| 2026-05-09 01:45 | 64.60989 | 25.04949 | 9916 ft | 297 kts | 348° |
| 2026-05-09 01:46 | 64.63015 | 25.04039 | 9513 ft | 295 kts | 348° |
| 2026-05-09 01:46 | 64.65027 | 25.03134 | 9121 ft | 294 kts | 348° |
| 2026-05-09 01:46 | 64.67036 | 25.02227 | 8727 ft | 293 kts | 348° |
| 2026-05-09 01:46 | 64.69041 | 25.01323 | 8333 ft | 292 kts | 348° |
| 2026-05-09 01:47 | 64.71025 | 25.00425 | 7962 ft | 290 kts | 348° |
| 2026-05-09 01:47 | 64.73002 | 24.99531 | 7580 ft | 288 kts | 348° |
| 2026-05-09 01:47 | 64.74963 | 24.98641 | 7181 ft | 287 kts | 348° |
| 2026-05-09 01:47 | 64.76918 | 24.97754 | 6808 ft | 284 kts | 348° |
| 2026-05-09 01:48 | 64.78850 | 24.96875 | 6430 ft | 282 kts | 348° |
| 2026-05-09 01:48 | 64.80778 | 24.95997 | 6051 ft | 280 kts | 348° |
| 2026-05-09 01:48 | 64.82691 | 24.95125 | 5673 ft | 279 kts | 348° |
| 2026-05-09 01:48 | 64.84586 | 24.94258 | 5315 ft | 277 kts | 348° |
| 2026-05-09 01:49 | 64.86445 | 24.93407 | 4953 ft | 275 kts | 348° |
| 2026-05-09 01:49 | 64.88323 | 24.92548 | 4584 ft | 274 kts | 348° |
| 2026-05-09 01:49 | 64.90183 | 24.91694 | 4227 ft | 272 kts | 348° |
| 2026-05-09 01:49 | 64.92037 | 24.90843 | 3861 ft | 270 kts | 348° |
| 2026-05-09 01:50 | 64.93875 | 24.90018 | 3495 ft | 267 kts | 352° |
| 2026-05-09 01:50 | 64.95701 | 24.90432 | 3112 ft | 265 kts | 21° |
| 2026-05-09 01:50 | 64.97305 | 24.92449 | 2828 ft | 258 kts | 32° |
| 2026-05-09 01:50 | 64.98784 | 24.94700 | 2448 ft | 247 kts | 32° |
| 2026-05-09 01:51 | 65.00248 | 24.96555 | 2037 ft | 237 kts | 16° |
| 2026-05-09 01:51 | 65.01812 | 24.96494 | 1863 ft | 218 kts | 343° |
| 2026-05-09 01:51 | 65.03278 | 24.96037 | 1479 ft | 214 kts | 11° |
| 2026-05-09 01:51 | 65.04490 | 24.97671 | 1484 ft | 190 kts | 46° |
| 2026-05-09 01:52 | 65.05117 | 25.00151 | 1517 ft | 166 kts | 72° |
| 2026-05-09 01:52 | 65.05235 | 25.02717 | 1485 ft | 151 kts | 97° |
| 2026-05-09 01:52 | 65.04923 | 25.05005 | 1472 ft | 144 kts | 121° |
| 2026-05-09 01:52 | 65.04279 | 25.06800 | 1511 ft | 144 kts | 142° |
| 2026-05-09 01:53 | 65.03437 | 25.08082 | 1574 ft | 144 kts | 151° |
| 2026-05-09 01:53 | 65.02559 | 25.09251 | 1637 ft | 144 kts | 152° |
| 2026-05-09 01:53 | 65.01708 | 25.10375 | 1764 ft | 135 kts | 151° |
| 2026-05-09 01:53 | 65.00887 | 25.11472 | 1791 ft | 136 kts | 152° |
| 2026-05-09 01:54 | 65.00054 | 25.12550 | 1765 ft | 135 kts | 152° |
| 2026-05-09 01:54 | 64.99250 | 25.13626 | 1794 ft | 135 kts | 151° |
| 2026-05-09 01:54 | 64.98432 | 25.14718 | 1798 ft | 135 kts | 150° |
| 2026-05-09 01:54 | 64.97810 | 25.16356 | 1676 ft | 140 kts | 119° |
| 2026-05-09 01:55 | 64.97371 | 25.18388 | 1488 ft | 137 kts | 122° |
| 2026-05-09 01:55 | 64.96852 | 25.20258 | 1314 ft | 135 kts | 124° |
| 2026-05-09 01:55 | 64.96368 | 25.22160 | 1140 ft | 135 kts | 121° |
| 2026-05-09 01:55 | 64.95898 | 25.24066 | 960 ft | 134 kts | 122° |
| 2026-05-09 01:56 | 64.95416 | 25.25944 | 781 ft | 134 kts | 122° |
| 2026-05-09 01:56 | 64.94952 | 25.27790 | 598 ft | 127 kts | 121° |
| 2026-05-09 01:56 | 64.94510 | 25.29541 | 416 ft | 122 kts | 122° |
| 2026-05-09 01:56 | 64.94080 | 25.31247 | 263 ft | 120 kts | 122° |
| 2026-05-09 01:57 | 64.93644 | 25.32954 | 128 ft | 122 kts | 122° |
| 2026-05-09 01:57 | 64.93224 | 25.34601 | 52 ft | 105 kts | 122° |
| 2026-05-09 01:57 | 64.92935 | 25.35739 | 51 ft | 53 kts | 121° |
| 2026-05-09 01:57 | 64.92803 | 25.36324 | 52 ft | 24 kts | 80° |
| 2026-05-09 01:58 | 64.92884 | 25.36498 | 49 ft | 7 kts | 31° |
| 2026-05-09 01:58 | 64.92903 | 25.36607 | 49 ft | 9 kts | 95° |
| 2026-05-09 01:58 | 64.92872 | 25.36744 | 49 ft | 11 kts | 121° |
| 2026-05-09 01:58 | 64.92843 | 25.36879 | 49 ft | 6 kts | 99° |
| 2026-05-09 01:59 | 64.92864 | 25.36982 | 49 ft | 6 kts | 61° |
| 2026-05-09 01:59 | 64.92873 | 25.37022 | 49 ft | 2 kts | 61° |
| 2026-05-09 01:59 | 64.92875 | 25.37031 | 49 ft | 0 kts | 61° |